sensor_id;sensor_type;location;lat;lon;timestamp;P1;durP1;ratioP1;P2;durP2;ratioP2
1467;SDS011;727;48.892;9.544;2022-08-25T00:00:34;6.10;;;4.97;;
1467;SDS011;727;48.892;9.544;2022-08-25T00:03:00;5.10;;;4.60;;
1467;SDS011;727;48.892;9.544;2022-08-25T00:05:28;5.47;;;4.93;;
1467;SDS011;727;48.892;9.544;2022-08-25T00:07:55;6.33;;;5.73;;
1467;SDS011;727;48.892;9.544;2022-08-25T00:10:22;5.37;;;4.90;;
1467;SDS011;727;48.892;9.544;2022-08-25T00:12:50;5.73;;;5.03;;
1467;SDS011;727;48.892;9.544;2022-08-25T00:15:17;5.03;;;4.63;;
1467;SDS011;727;48.892;9.544;2022-08-25T00:17:47;5.87;;;4.90;;
1467;SDS011;727;48.892;9.544;2022-08-25T00:20:14;5.70;;;5.20;;
1467;SDS011;727;48.892;9.544;2022-08-25T00:22:41;6.10;;;5.30;;
1467;SDS011;727;48.892;9.544;2022-08-25T00:25:09;5.60;;;5.10;;
1467;SDS011;727;48.892;9.544;2022-08-25T00:27:36;9.00;;;5.27;;
1467;SDS011;727;48.892;9.544;2022-08-25T00:30:05;6.30;;;5.33;;
1467;SDS011;727;48.892;9.544;2022-08-25T00:32:34;4.23;;;3.83;;
1467;SDS011;727;48.892;9.544;2022-08-25T00:35:01;7.57;;;5.00;;
1467;SDS011;727;48.892;9.544;2022-08-25T00:37:29;5.73;;;5.23;;
1467;SDS011;727;48.892;9.544;2022-08-25T00:39:55;5.83;;;5.10;;
1467;SDS011;727;48.892;9.544;2022-08-25T00:42:22;6.30;;;5.70;;
1467;SDS011;727;48.892;9.544;2022-08-25T00:44:49;5.87;;;5.37;;
1467;SDS011;727;48.892;9.544;2022-08-25T00:47:17;6.47;;;5.40;;
1467;SDS011;727;48.892;9.544;2022-08-25T00:49:45;6.83;;;6.13;;
1467;SDS011;727;48.892;9.544;2022-08-25T00:52:18;5.97;;;5.40;;
1467;SDS011;727;48.892;9.544;2022-08-25T00:54:48;5.97;;;5.17;;
1467;SDS011;727;48.892;9.544;2022-08-25T00:57:18;9.13;;;6.57;;
1467;SDS011;727;48.892;9.544;2022-08-25T00:59:49;6.27;;;5.67;;
1467;SDS011;727;48.892;9.544;2022-08-25T01:02:18;6.93;;;6.20;;
1467;SDS011;727;48.892;9.544;2022-08-25T01:04:44;6.40;;;5.83;;
1467;SDS011;727;48.892;9.544;2022-08-25T01:07:11;6.03;;;5.43;;
1467;SDS011;727;48.892;9.544;2022-08-25T01:09:40;6.60;;;5.90;;
1467;SDS011;727;48.892;9.544;2022-08-25T01:12:09;9.43;;;5.60;;
1467;SDS011;727;48.892;9.544;2022-08-25T01:14:35;6.30;;;5.37;;
1467;SDS011;727;48.892;9.544;2022-08-25T01:17:03;6.93;;;5.27;;
1467;SDS011;727;48.892;9.544;2022-08-25T01:19:32;5.80;;;5.20;;
1467;SDS011;727;48.892;9.544;2022-08-25T01:22:00;6.63;;;5.60;;
1467;SDS011;727;48.892;9.544;2022-08-25T01:24:28;7.30;;;5.43;;
1467;SDS011;727;48.892;9.544;2022-08-25T01:27:01;7.37;;;5.93;;
1467;SDS011;727;48.892;9.544;2022-08-25T01:29:29;7.30;;;6.60;;
1467;SDS011;727;48.892;9.544;2022-08-25T01:31:57;7.40;;;6.57;;
1467;SDS011;727;48.892;9.544;2022-08-25T01:34:26;7.77;;;5.90;;
1467;SDS011;727;48.892;9.544;2022-08-25T01:36:55;7.00;;;6.37;;
1467;SDS011;727;48.892;9.544;2022-08-25T01:39:25;6.07;;;5.57;;
1467;SDS011;727;48.892;9.544;2022-08-25T01:42:08;8.20;;;5.63;;
1467;SDS011;727;48.892;9.544;2022-08-25T01:44:45;6.83;;;6.17;;
1467;SDS011;727;48.892;9.544;2022-08-25T01:47:13;11.27;;;6.60;;
1467;SDS011;727;48.892;9.544;2022-08-25T01:49:40;11.70;;;7.27;;
1467;SDS011;727;48.892;9.544;2022-08-25T01:52:09;6.40;;;5.90;;
1467;SDS011;727;48.892;9.544;2022-08-25T01:54:38;6.90;;;6.27;;
1467;SDS011;727;48.892;9.544;2022-08-25T01:57:05;6.90;;;6.13;;
1467;SDS011;727;48.892;9.544;2022-08-25T01:59:33;6.43;;;5.87;;
1467;SDS011;727;48.892;9.544;2022-08-25T02:01:59;5.80;;;5.40;;
1467;SDS011;727;48.892;9.544;2022-08-25T02:04:26;6.30;;;5.80;;
1467;SDS011;727;48.892;9.544;2022-08-25T02:06:56;6.83;;;6.13;;
1467;SDS011;727;48.892;9.544;2022-08-25T02:09:22;6.57;;;5.97;;
1467;SDS011;727;48.892;9.544;2022-08-25T02:11:50;7.20;;;6.20;;
1467;SDS011;727;48.892;9.544;2022-08-25T02:14:17;9.37;;;6.47;;
1467;SDS011;727;48.892;9.544;2022-08-25T02:16:45;7.50;;;6.43;;
1467;SDS011;727;48.892;9.544;2022-08-25T02:19:15;6.90;;;6.10;;
1467;SDS011;727;48.892;9.544;2022-08-25T02:21:42;7.13;;;6.53;;
1467;SDS011;727;48.892;9.544;2022-08-25T02:24:09;8.00;;;7.30;;
1467;SDS011;727;48.892;9.544;2022-08-25T02:26:37;6.50;;;5.90;;
1467;SDS011;727;48.892;9.544;2022-08-25T02:29:06;7.97;;;7.27;;
1467;SDS011;727;48.892;9.544;2022-08-25T02:31:33;7.97;;;6.57;;
1467;SDS011;727;48.892;9.544;2022-08-25T02:34:00;8.70;;;6.63;;
1467;SDS011;727;48.892;9.544;2022-08-25T02:36:28;8.20;;;7.30;;
1467;SDS011;727;48.892;9.544;2022-08-25T02:38:56;7.43;;;6.73;;
1467;SDS011;727;48.892;9.544;2022-08-25T02:41:24;8.93;;;6.60;;
1467;SDS011;727;48.892;9.544;2022-08-25T02:43:51;8.70;;;7.20;;
1467;SDS011;727;48.892;9.544;2022-08-25T02:46:20;9.70;;;7.90;;
1467;SDS011;727;48.892;9.544;2022-08-25T02:48:48;9.30;;;7.87;;
1467;SDS011;727;48.892;9.544;2022-08-25T02:51:17;8.47;;;7.60;;
1467;SDS011;727;48.892;9.544;2022-08-25T02:53:46;9.27;;;7.47;;
1467;SDS011;727;48.892;9.544;2022-08-25T02:56:14;9.27;;;8.37;;
1467;SDS011;727;48.892;9.544;2022-08-25T02:58:42;9.40;;;8.47;;
1467;SDS011;727;48.892;9.544;2022-08-25T03:01:10;9.87;;;8.83;;
1467;SDS011;727;48.892;9.544;2022-08-25T03:03:38;9.07;;;8.17;;
1467;SDS011;727;48.892;9.544;2022-08-25T03:06:06;9.97;;;8.10;;
1467;SDS011;727;48.892;9.544;2022-08-25T03:08:33;8.60;;;7.80;;
1467;SDS011;727;48.892;9.544;2022-08-25T03:11:00;7.80;;;7.10;;
1467;SDS011;727;48.892;9.544;2022-08-25T03:13:27;8.47;;;7.73;;
1467;SDS011;727;48.892;9.544;2022-08-25T03:15:54;8.17;;;7.40;;
1467;SDS011;727;48.892;9.544;2022-08-25T03:18:20;9.00;;;7.43;;
1467;SDS011;727;48.892;9.544;2022-08-25T03:20:49;10.13;;;7.73;;
1467;SDS011;727;48.892;9.544;2022-08-25T03:23:16;9.03;;;8.23;;
1467;SDS011;727;48.892;9.544;2022-08-25T03:25:43;10.43;;;7.87;;
1467;SDS011;727;48.892;9.544;2022-08-25T03:28:27;8.30;;;7.27;;
1467;SDS011;727;48.892;9.544;2022-08-25T03:30:57;9.13;;;8.13;;
1467;SDS011;727;48.892;9.544;2022-08-25T03:33:25;9.40;;;8.50;;
1467;SDS011;727;48.892;9.544;2022-08-25T03:35:53;9.00;;;8.20;;
1467;SDS011;727;48.892;9.544;2022-08-25T03:38:20;10.47;;;8.30;;
1467;SDS011;727;48.892;9.544;2022-08-25T03:40:47;9.27;;;8.33;;
1467;SDS011;727;48.892;9.544;2022-08-25T03:43:15;8.37;;;7.47;;
1467;SDS011;727;48.892;9.544;2022-08-25T03:45:42;9.67;;;8.20;;
1467;SDS011;727;48.892;9.544;2022-08-25T03:48:10;8.87;;;8.00;;
1467;SDS011;727;48.892;9.544;2022-08-25T03:50:42;9.60;;;8.60;;
1467;SDS011;727;48.892;9.544;2022-08-25T03:53:11;9.20;;;8.27;;
1467;SDS011;727;48.892;9.544;2022-08-25T03:55:38;8.70;;;7.80;;
1467;SDS011;727;48.892;9.544;2022-08-25T03:58:05;9.93;;;8.70;;
1467;SDS011;727;48.892;9.544;2022-08-25T04:00:32;10.50;;;9.50;;
1467;SDS011;727;48.892;9.544;2022-08-25T04:02:58;8.00;;;7.17;;
1467;SDS011;727;48.892;9.544;2022-08-25T04:05:25;8.20;;;7.40;;
1467;SDS011;727;48.892;9.544;2022-08-25T04:07:52;9.67;;;7.63;;
1467;SDS011;727;48.892;9.544;2022-08-25T04:10:21;12.90;;;8.00;;
1467;SDS011;727;48.892;9.544;2022-08-25T04:12:47;10.57;;;8.30;;
1467;SDS011;727;48.892;9.544;2022-08-25T04:15:14;9.37;;;8.47;;
1467;SDS011;727;48.892;9.544;2022-08-25T04:17:41;9.60;;;8.70;;
1467;SDS011;727;48.892;9.544;2022-08-25T04:20:09;8.60;;;7.80;;
1467;SDS011;727;48.892;9.544;2022-08-25T04:22:36;9.47;;;8.67;;
1467;SDS011;727;48.892;9.544;2022-08-25T04:25:04;10.30;;;7.50;;
1467;SDS011;727;48.892;9.544;2022-08-25T04:27:34;9.27;;;8.40;;
1467;SDS011;727;48.892;9.544;2022-08-25T04:30:02;10.20;;;8.90;;
1467;SDS011;727;48.892;9.544;2022-08-25T04:32:29;13.10;;;8.90;;
1467;SDS011;727;48.892;9.544;2022-08-25T04:34:56;9.20;;;8.30;;
1467;SDS011;727;48.892;9.544;2022-08-25T04:37:23;13.40;;;9.63;;
1467;SDS011;727;48.892;9.544;2022-08-25T04:39:50;12.77;;;9.67;;
1467;SDS011;727;48.892;9.544;2022-08-25T04:42:16;8.87;;;7.80;;
1467;SDS011;727;48.892;9.544;2022-08-25T04:44:44;10.97;;;9.77;;
1467;SDS011;727;48.892;9.544;2022-08-25T04:47:11;10.20;;;8.70;;
1467;SDS011;727;48.892;9.544;2022-08-25T04:49:38;9.93;;;8.93;;
1467;SDS011;727;48.892;9.544;2022-08-25T04:52:05;12.20;;;11.10;;
1467;SDS011;727;48.892;9.544;2022-08-25T04:54:31;10.80;;;9.70;;
1467;SDS011;727;48.892;9.544;2022-08-25T04:56:58;9.97;;;8.97;;
1467;SDS011;727;48.892;9.544;2022-08-25T04:59:25;9.97;;;8.97;;
1467;SDS011;727;48.892;9.544;2022-08-25T05:01:54;8.53;;;7.63;;
1467;SDS011;727;48.892;9.544;2022-08-25T05:04:21;9.10;;;8.20;;
1467;SDS011;727;48.892;9.544;2022-08-25T05:06:48;9.00;;;8.10;;
1467;SDS011;727;48.892;9.544;2022-08-25T05:09:15;16.90;;;9.57;;
1467;SDS011;727;48.892;9.544;2022-08-25T05:11:42;8.80;;;7.90;;
1467;SDS011;727;48.892;9.544;2022-08-25T05:14:08;9.67;;;8.47;;
1467;SDS011;727;48.892;9.544;2022-08-25T05:16:37;10.00;;;9.07;;
1467;SDS011;727;48.892;9.544;2022-08-25T05:19:05;10.30;;;8.63;;
1467;SDS011;727;48.892;9.544;2022-08-25T05:21:33;10.17;;;9.03;;
1467;SDS011;727;48.892;9.544;2022-08-25T05:24:01;10.50;;;9.37;;
1467;SDS011;727;48.892;9.544;2022-08-25T05:26:29;9.40;;;8.50;;
1467;SDS011;727;48.892;9.544;2022-08-25T05:28:58;11.33;;;8.10;;
1467;SDS011;727;48.892;9.544;2022-08-25T05:31:26;11.20;;;8.27;;
1467;SDS011;727;48.892;9.544;2022-08-25T05:33:53;10.90;;;6.83;;
1467;SDS011;727;48.892;9.544;2022-08-25T05:36:22;7.50;;;6.90;;
1467;SDS011;727;48.892;9.544;2022-08-25T05:38:51;8.70;;;7.90;;
1467;SDS011;727;48.892;9.544;2022-08-25T05:41:19;8.27;;;7.40;;
1467;SDS011;727;48.892;9.544;2022-08-25T05:43:49;7.83;;;7.13;;
1467;SDS011;727;48.892;9.544;2022-08-25T05:46:17;7.97;;;7.37;;
1467;SDS011;727;48.892;9.544;2022-08-25T05:48:45;8.27;;;7.57;;
1467;SDS011;727;48.892;9.544;2022-08-25T05:51:12;7.30;;;6.60;;
1467;SDS011;727;48.892;9.544;2022-08-25T05:53:41;6.90;;;6.33;;
1467;SDS011;727;48.892;9.544;2022-08-25T05:56:10;7.90;;;7.20;;
1467;SDS011;727;48.892;9.544;2022-08-25T05:58:38;8.97;;;7.00;;
1467;SDS011;727;48.892;9.544;2022-08-25T06:01:06;7.23;;;6.53;;
1467;SDS011;727;48.892;9.544;2022-08-25T06:03:50;7.37;;;6.60;;
1467;SDS011;727;48.892;9.544;2022-08-25T06:06:18;6.47;;;5.87;;
1467;SDS011;727;48.892;9.544;2022-08-25T06:08:47;7.03;;;6.33;;
1467;SDS011;727;48.892;9.544;2022-08-25T06:11:13;7.77;;;6.97;;
1467;SDS011;727;48.892;9.544;2022-08-25T06:13:41;7.30;;;6.60;;
1467;SDS011;727;48.892;9.544;2022-08-25T06:16:07;12.20;;;7.60;;
1467;SDS011;727;48.892;9.544;2022-08-25T06:18:34;9.20;;;7.00;;
1467;SDS011;727;48.892;9.544;2022-08-25T06:21:05;7.77;;;7.17;;
1467;SDS011;727;48.892;9.544;2022-08-25T06:23:33;8.70;;;7.80;;
1467;SDS011;727;48.892;9.544;2022-08-25T06:26:02;7.47;;;6.77;;
1467;SDS011;727;48.892;9.544;2022-08-25T06:28:29;8.70;;;7.90;;
1467;SDS011;727;48.892;9.544;2022-08-25T06:30:56;7.53;;;6.53;;
1467;SDS011;727;48.892;9.544;2022-08-25T06:33:24;10.70;;;7.80;;
1467;SDS011;727;48.892;9.544;2022-08-25T06:35:52;7.30;;;6.57;;
1467;SDS011;727;48.892;9.544;2022-08-25T06:38:19;7.87;;;6.87;;
1467;SDS011;727;48.892;9.544;2022-08-25T06:40:47;7.73;;;7.03;;
1467;SDS011;727;48.892;9.544;2022-08-25T06:43:15;7.83;;;7.13;;
1467;SDS011;727;48.892;9.544;2022-08-25T06:45:42;9.97;;;7.60;;
1467;SDS011;727;48.892;9.544;2022-08-25T06:48:09;9.47;;;8.47;;
1467;SDS011;727;48.892;9.544;2022-08-25T06:50:36;10.00;;;7.70;;
1467;SDS011;727;48.892;9.544;2022-08-25T06:53:04;13.40;;;8.90;;
1467;SDS011;727;48.892;9.544;2022-08-25T06:55:31;7.47;;;6.77;;
1467;SDS011;727;48.892;9.544;2022-08-25T06:57:59;7.70;;;6.90;;
1467;SDS011;727;48.892;9.544;2022-08-25T07:00:28;9.77;;;8.87;;
1467;SDS011;727;48.892;9.544;2022-08-25T07:02:55;7.57;;;6.53;;
1467;SDS011;727;48.892;9.544;2022-08-25T07:05:22;10.13;;;7.93;;
1467;SDS011;727;48.892;9.544;2022-08-25T07:07:49;9.83;;;8.83;;
1467;SDS011;727;48.892;9.544;2022-08-25T07:10:16;9.47;;;7.63;;
1467;SDS011;727;48.892;9.544;2022-08-25T07:12:43;10.10;;;7.13;;
1467;SDS011;727;48.892;9.544;2022-08-25T07:15:10;7.23;;;6.63;;
1467;SDS011;727;48.892;9.544;2022-08-25T07:17:37;7.30;;;6.60;;
1467;SDS011;727;48.892;9.544;2022-08-25T07:20:04;7.63;;;6.93;;
1467;SDS011;727;48.892;9.544;2022-08-25T07:22:31;7.33;;;6.70;;
1467;SDS011;727;48.892;9.544;2022-08-25T07:24:58;6.97;;;6.47;;
1467;SDS011;727;48.892;9.544;2022-08-25T07:27:25;6.60;;;6.00;;
1467;SDS011;727;48.892;9.544;2022-08-25T07:29:51;7.57;;;6.53;;
1467;SDS011;727;48.892;9.544;2022-08-25T07:32:18;6.90;;;6.40;;
1467;SDS011;727;48.892;9.544;2022-08-25T07:34:46;7.33;;;6.70;;
1467;SDS011;727;48.892;9.544;2022-08-25T07:37:31;6.00;;;5.50;;
1467;SDS011;727;48.892;9.544;2022-08-25T07:40:00;6.60;;;5.93;;
1467;SDS011;727;48.892;9.544;2022-08-25T07:42:28;8.93;;;7.20;;
1467;SDS011;727;48.892;9.544;2022-08-25T07:44:54;7.60;;;6.90;;
1467;SDS011;727;48.892;9.544;2022-08-25T07:47:21;6.57;;;6.07;;
1467;SDS011;727;48.892;9.544;2022-08-25T07:49:49;6.80;;;5.93;;
1467;SDS011;727;48.892;9.544;2022-08-25T07:52:16;7.03;;;5.50;;
1467;SDS011;727;48.892;9.544;2022-08-25T07:54:43;6.80;;;6.00;;
1467;SDS011;727;48.892;9.544;2022-08-25T07:57:10;6.50;;;5.90;;
1467;SDS011;727;48.892;9.544;2022-08-25T07:59:38;8.70;;;6.30;;
1467;SDS011;727;48.892;9.544;2022-08-25T08:02:06;5.73;;;5.23;;
1467;SDS011;727;48.892;9.544;2022-08-25T08:04:34;6.90;;;6.20;;
1467;SDS011;727;48.892;9.544;2022-08-25T08:07:02;6.83;;;6.30;;
1467;SDS011;727;48.892;9.544;2022-08-25T08:09:30;5.90;;;5.40;;
1467;SDS011;727;48.892;9.544;2022-08-25T08:11:57;6.60;;;5.70;;
1467;SDS011;727;48.892;9.544;2022-08-25T08:14:24;5.63;;;5.13;;
1467;SDS011;727;48.892;9.544;2022-08-25T08:16:50;6.80;;;6.07;;
1467;SDS011;727;48.892;9.544;2022-08-25T08:19:18;6.47;;;5.17;;
1467;SDS011;727;48.892;9.544;2022-08-25T08:21:46;5.77;;;5.27;;
1467;SDS011;727;48.892;9.544;2022-08-25T08:24:15;6.30;;;5.80;;
1467;SDS011;727;48.892;9.544;2022-08-25T08:26:42;5.73;;;5.23;;
1467;SDS011;727;48.892;9.544;2022-08-25T08:29:09;7.67;;;6.70;;
1467;SDS011;727;48.892;9.544;2022-08-25T08:31:36;6.53;;;5.93;;
1467;SDS011;727;48.892;9.544;2022-08-25T08:34:03;6.50;;;5.90;;
1467;SDS011;727;48.892;9.544;2022-08-25T08:36:30;6.73;;;6.10;;
1467;SDS011;727;48.892;9.544;2022-08-25T08:38:56;5.63;;;5.13;;
1467;SDS011;727;48.892;9.544;2022-08-25T08:41:44;6.67;;;6.07;;
1467;SDS011;727;48.892;9.544;2022-08-25T08:47:46;5.77;;;5.37;;
1467;SDS011;727;48.892;9.544;2022-08-25T08:50:27;6.50;;;6.00;;
1467;SDS011;727;48.892;9.544;2022-08-25T08:52:59;6.03;;;5.53;;
1467;SDS011;727;48.892;9.544;2022-08-25T08:55:35;6.10;;;5.60;;
1467;SDS011;727;48.892;9.544;2022-08-25T08:58:07;8.70;;;5.37;;
1467;SDS011;727;48.892;9.544;2022-08-25T09:00:38;6.10;;;5.23;;
1467;SDS011;727;48.892;9.544;2022-08-25T09:03:09;5.67;;;4.97;;
1467;SDS011;727;48.892;9.544;2022-08-25T09:05:42;6.80;;;6.10;;
1467;SDS011;727;48.892;9.544;2022-08-25T09:08:12;6.20;;;5.60;;
1467;SDS011;727;48.892;9.544;2022-08-25T09:10:44;5.93;;;5.43;;
1467;SDS011;727;48.892;9.544;2022-08-25T09:13:22;6.07;;;5.57;;
1467;SDS011;727;48.892;9.544;2022-08-25T09:15:54;6.13;;;5.63;;
1467;SDS011;727;48.892;9.544;2022-08-25T09:18:45;5.70;;;4.73;;
1467;SDS011;727;48.892;9.544;2022-08-25T09:21:20;5.57;;;5.17;;
1467;SDS011;727;48.892;9.544;2022-08-25T09:23:57;5.73;;;5.17;;
1467;SDS011;727;48.892;9.544;2022-08-25T09:26:36;5.10;;;4.70;;
1467;SDS011;727;48.892;9.544;2022-08-25T09:29:12;5.40;;;4.53;;
1467;SDS011;727;48.892;9.544;2022-08-25T09:31:41;6.47;;;5.97;;
1467;SDS011;727;48.892;9.544;2022-08-25T09:34:10;5.97;;;5.47;;
1467;SDS011;727;48.892;9.544;2022-08-25T09:36:41;6.40;;;4.87;;
1467;SDS011;727;48.892;9.544;2022-08-25T09:39:09;5.87;;;5.33;;
1467;SDS011;727;48.892;9.544;2022-08-25T09:41:41;5.80;;;5.20;;
1467;SDS011;727;48.892;9.544;2022-08-25T09:44:21;5.60;;;5.10;;
1467;SDS011;727;48.892;9.544;2022-08-25T09:46:53;5.77;;;5.30;;
1467;SDS011;727;48.892;9.544;2022-08-25T09:49:30;4.83;;;4.43;;
1467;SDS011;727;48.892;9.544;2022-08-25T09:52:15;5.63;;;5.23;;
1467;SDS011;727;48.892;9.544;2022-08-25T09:54:48;4.97;;;4.60;;
1467;SDS011;727;48.892;9.544;2022-08-25T09:57:29;6.00;;;5.20;;
1467;SDS011;727;48.892;9.544;2022-08-25T10:00:09;6.03;;;5.60;;
1467;SDS011;727;48.892;9.544;2022-08-25T10:02:41;5.70;;;5.20;;
1467;SDS011;727;48.892;9.544;2022-08-25T10:05:20;4.70;;;4.30;;
1467;SDS011;727;48.892;9.544;2022-08-25T10:07:49;5.73;;;5.23;;
1467;SDS011;727;48.892;9.544;2022-08-25T10:10:21;5.77;;;5.33;;
1467;SDS011;727;48.892;9.544;2022-08-25T10:12:50;4.97;;;4.57;;
1467;SDS011;727;48.892;9.544;2022-08-25T10:15:21;5.10;;;4.60;;
1467;SDS011;727;48.892;9.544;2022-08-25T10:17:51;5.77;;;5.37;;
1467;SDS011;727;48.892;9.544;2022-08-25T10:20:19;6.23;;;5.03;;
1467;SDS011;727;48.892;9.544;2022-08-25T10:22:49;5.30;;;4.80;;
1467;SDS011;727;48.892;9.544;2022-08-25T10:25:20;5.90;;;4.30;;
1467;SDS011;727;48.892;9.544;2022-08-25T10:27:52;4.87;;;4.13;;
1467;SDS011;727;48.892;9.544;2022-08-25T10:30:29;5.63;;;5.03;;
1467;SDS011;727;48.892;9.544;2022-08-25T10:33:07;5.23;;;4.83;;
1467;SDS011;727;48.892;9.544;2022-08-25T10:35:43;5.40;;;4.90;;
1467;SDS011;727;48.892;9.544;2022-08-25T10:38:24;5.57;;;4.90;;
1467;SDS011;727;48.892;9.544;2022-08-25T10:41:01;6.53;;;4.50;;
1467;SDS011;727;48.892;9.544;2022-08-25T10:43:37;5.10;;;4.60;;
1467;SDS011;727;48.892;9.544;2022-08-25T10:46:12;5.80;;;4.80;;
1467;SDS011;727;48.892;9.544;2022-08-25T10:48:49;5.00;;;4.60;;
1467;SDS011;727;48.892;9.544;2022-08-25T10:54:18;5.20;;;4.80;;
1467;SDS011;727;48.892;9.544;2022-08-25T10:56:54;4.70;;;4.30;;
1467;SDS011;727;48.892;9.544;2022-08-25T10:59:29;4.50;;;4.10;;
1467;SDS011;727;48.892;9.544;2022-08-25T11:02:27;4.80;;;4.40;;
1467;SDS011;727;48.892;9.544;2022-08-25T11:05:16;6.13;;;4.63;;
1467;SDS011;727;48.892;9.544;2022-08-25T11:07:52;4.67;;;4.23;;
1467;SDS011;727;48.892;9.544;2022-08-25T11:10:24;4.40;;;4.10;;
1467;SDS011;727;48.892;9.544;2022-08-25T11:12:57;5.10;;;4.70;;
1467;SDS011;727;48.892;9.544;2022-08-25T11:15:27;5.07;;;4.57;;
1467;SDS011;727;48.892;9.544;2022-08-25T11:18:03;4.87;;;4.47;;
1467;SDS011;727;48.892;9.544;2022-08-25T11:20:34;5.67;;;5.23;;
1467;SDS011;727;48.892;9.544;2022-08-25T11:23:07;6.00;;;5.50;;
1467;SDS011;727;48.892;9.544;2022-08-25T11:25:41;5.43;;;5.03;;
1467;SDS011;727;48.892;9.544;2022-08-25T11:28:09;5.27;;;4.80;;
1467;SDS011;727;48.892;9.544;2022-08-25T11:30:39;7.10;;;4.60;;
1467;SDS011;727;48.892;9.544;2022-08-25T11:33:08;4.97;;;4.57;;
1467;SDS011;727;48.892;9.544;2022-08-25T11:35:39;4.53;;;4.23;;
1467;SDS011;727;48.892;9.544;2022-08-25T11:38:16;5.30;;;4.80;;
1467;SDS011;727;48.892;9.544;2022-08-25T11:40:54;5.27;;;4.80;;
1467;SDS011;727;48.892;9.544;2022-08-25T11:43:35;5.10;;;4.73;;
1467;SDS011;727;48.892;9.544;2022-08-25T11:46:24;4.33;;;4.03;;
1467;SDS011;727;48.892;9.544;2022-08-25T11:48:59;6.97;;;5.67;;
1467;SDS011;727;48.892;9.544;2022-08-25T11:51:39;4.90;;;4.50;;
1467;SDS011;727;48.892;9.544;2022-08-25T11:54:14;5.77;;;4.60;;
1467;SDS011;727;48.892;9.544;2022-08-25T11:56:49;4.87;;;4.50;;
1467;SDS011;727;48.892;9.544;2022-08-25T12:02:29;5.67;;;5.07;;
1467;SDS011;727;48.892;9.544;2022-08-25T12:05:01;5.47;;;5.07;;
1467;SDS011;727;48.892;9.544;2022-08-25T12:07:56;5.63;;;5.13;;
1467;SDS011;727;48.892;9.544;2022-08-25T12:13:40;5.30;;;4.90;;
1467;SDS011;727;48.892;9.544;2022-08-25T12:19:22;5.43;;;4.93;;
1467;SDS011;727;48.892;9.544;2022-08-25T12:21:54;8.07;;;4.80;;
1467;SDS011;727;48.892;9.544;2022-08-25T12:24:24;5.00;;;4.60;;
1467;SDS011;727;48.892;9.544;2022-08-25T12:27:19;5.40;;;4.90;;
1467;SDS011;727;48.892;9.544;2022-08-25T12:29:52;5.53;;;4.60;;
1467;SDS011;727;48.892;9.544;2022-08-25T12:32:28;8.53;;;4.63;;
1467;SDS011;727;48.892;9.544;2022-08-25T12:35:15;5.10;;;4.70;;
1467;SDS011;727;48.892;9.544;2022-08-25T12:37:54;4.90;;;4.50;;
1467;SDS011;727;48.892;9.544;2022-08-25T12:40:25;5.43;;;4.90;;
1467;SDS011;727;48.892;9.544;2022-08-25T12:42:59;4.60;;;4.30;;
1467;SDS011;727;48.892;9.544;2022-08-25T12:45:34;5.03;;;4.63;;
1467;SDS011;727;48.892;9.544;2022-08-25T12:51:07;4.30;;;4.00;;
1467;SDS011;727;48.892;9.544;2022-08-25T12:53:42;4.70;;;4.30;;
1467;SDS011;727;48.892;9.544;2022-08-25T12:56:15;5.03;;;4.63;;
1467;SDS011;727;48.892;9.544;2022-08-25T12:58:53;4.53;;;3.53;;
1467;SDS011;727;48.892;9.544;2022-08-25T13:01:25;4.50;;;4.20;;
1467;SDS011;727;48.892;9.544;2022-08-25T13:07:13;4.23;;;3.80;;
1467;SDS011;727;48.892;9.544;2022-08-25T13:09:59;4.30;;;4.00;;
1467;SDS011;727;48.892;9.544;2022-08-25T13:12:45;3.70;;;3.40;;
1467;SDS011;727;48.892;9.544;2022-08-25T13:15:26;5.50;;;4.03;;
1467;SDS011;727;48.892;9.544;2022-08-25T13:18:11;5.10;;;4.60;;
1467;SDS011;727;48.892;9.544;2022-08-25T13:20:39;4.53;;;3.87;;
1467;SDS011;727;48.892;9.544;2022-08-25T13:23:07;4.77;;;4.37;;
1467;SDS011;727;48.892;9.544;2022-08-25T13:25:36;5.03;;;4.70;;
1467;SDS011;727;48.892;9.544;2022-08-25T13:28:17;4.40;;;4.10;;
1467;SDS011;727;48.892;9.544;2022-08-25T13:30:54;4.07;;;3.77;;
1467;SDS011;727;48.892;9.544;2022-08-25T13:33:22;5.13;;;4.73;;
1467;SDS011;727;48.892;9.544;2022-08-25T13:35:50;4.30;;;4.00;;
1467;SDS011;727;48.892;9.544;2022-08-25T13:38:39;3.90;;;3.70;;
1467;SDS011;727;48.892;9.544;2022-08-25T13:41:07;5.07;;;4.60;;
1467;SDS011;727;48.892;9.544;2022-08-25T13:43:34;5.10;;;4.60;;
1467;SDS011;727;48.892;9.544;2022-08-25T13:46:02;4.53;;;4.20;;
1467;SDS011;727;48.892;9.544;2022-08-25T13:48:31;4.90;;;4.40;;
1467;SDS011;727;48.892;9.544;2022-08-25T13:51:05;6.77;;;4.30;;
1467;SDS011;727;48.892;9.544;2022-08-25T13:53:33;4.57;;;4.27;;
1467;SDS011;727;48.892;9.544;2022-08-25T13:56:01;5.27;;;4.77;;
1467;SDS011;727;48.892;9.544;2022-08-25T13:58:30;4.40;;;4.00;;
1467;SDS011;727;48.892;9.544;2022-08-25T14:01:00;4.07;;;3.77;;
1467;SDS011;727;48.892;9.544;2022-08-25T14:03:34;3.93;;;3.70;;
1467;SDS011;727;48.892;9.544;2022-08-25T14:06:03;4.50;;;4.20;;
1467;SDS011;727;48.892;9.544;2022-08-25T14:08:34;4.27;;;3.97;;
1467;SDS011;727;48.892;9.544;2022-08-25T14:11:05;4.53;;;3.93;;
1467;SDS011;727;48.892;9.544;2022-08-25T14:13:36;4.30;;;3.97;;
1467;SDS011;727;48.892;9.544;2022-08-25T14:16:08;4.40;;;4.07;;
1467;SDS011;727;48.892;9.544;2022-08-25T14:18:36;6.20;;;4.50;;
1467;SDS011;727;48.892;9.544;2022-08-25T14:21:07;5.50;;;4.80;;
1467;SDS011;727;48.892;9.544;2022-08-25T14:23:35;4.27;;;3.90;;
1467;SDS011;727;48.892;9.544;2022-08-25T14:26:03;4.50;;;4.10;;
1467;SDS011;727;48.892;9.544;2022-08-25T14:28:30;3.77;;;3.47;;
1467;SDS011;727;48.892;9.544;2022-08-25T14:30:59;3.83;;;3.63;;
1467;SDS011;727;48.892;9.544;2022-08-25T14:33:31;3.80;;;3.37;;
1467;SDS011;727;48.892;9.544;2022-08-25T14:36:01;4.83;;;4.33;;
1467;SDS011;727;48.892;9.544;2022-08-25T14:38:28;4.07;;;3.77;;
1467;SDS011;727;48.892;9.544;2022-08-25T14:40:55;5.03;;;4.37;;
1467;SDS011;727;48.892;9.544;2022-08-25T14:43:22;3.87;;;3.53;;
1467;SDS011;727;48.892;9.544;2022-08-25T14:45:49;4.23;;;3.93;;
1467;SDS011;727;48.892;9.544;2022-08-25T14:48:20;3.97;;;3.70;;
1467;SDS011;727;48.892;9.544;2022-08-25T14:50:50;3.60;;;3.33;;
1467;SDS011;727;48.892;9.544;2022-08-25T14:53:16;3.90;;;3.60;;
1467;SDS011;727;48.892;9.544;2022-08-25T14:55:44;3.80;;;3.50;;
1467;SDS011;727;48.892;9.544;2022-08-25T14:58:11;6.60;;;4.10;;
1467;SDS011;727;48.892;9.544;2022-08-25T15:00:39;3.67;;;3.40;;
1467;SDS011;727;48.892;9.544;2022-08-25T15:03:09;4.60;;;4.20;;
1467;SDS011;727;48.892;9.544;2022-08-25T15:05:39;4.70;;;4.30;;
1467;SDS011;727;48.892;9.544;2022-08-25T15:08:07;4.50;;;4.20;;
1467;SDS011;727;48.892;9.544;2022-08-25T15:10:51;3.70;;;3.40;;
1467;SDS011;727;48.892;9.544;2022-08-25T15:13:18;4.17;;;3.87;;
1467;SDS011;727;48.892;9.544;2022-08-25T15:15:45;4.23;;;3.80;;
1467;SDS011;727;48.892;9.544;2022-08-25T15:18:13;3.53;;;3.23;;
1467;SDS011;727;48.892;9.544;2022-08-25T15:20:42;3.67;;;3.33;;
1467;SDS011;727;48.892;9.544;2022-08-25T15:23:09;3.40;;;3.20;;
1467;SDS011;727;48.892;9.544;2022-08-25T15:25:35;3.73;;;3.43;;
1467;SDS011;727;48.892;9.544;2022-08-25T15:28:03;4.40;;;4.00;;
1467;SDS011;727;48.892;9.544;2022-08-25T15:30:31;10.67;;;4.70;;
1467;SDS011;727;48.892;9.544;2022-08-25T15:32:57;3.97;;;3.67;;
1467;SDS011;727;48.892;9.544;2022-08-25T15:35:24;3.87;;;3.57;;
1467;SDS011;727;48.892;9.544;2022-08-25T15:37:52;6.20;;;4.40;;
1467;SDS011;727;48.892;9.544;2022-08-25T15:40:19;4.20;;;3.90;;
1467;SDS011;727;48.892;9.544;2022-08-25T15:42:46;4.37;;;4.00;;
1467;SDS011;727;48.892;9.544;2022-08-25T15:45:13;4.10;;;3.80;;
1467;SDS011;727;48.892;9.544;2022-08-25T15:47:39;3.93;;;3.63;;
1467;SDS011;727;48.892;9.544;2022-08-25T15:50:07;3.90;;;3.60;;
1467;SDS011;727;48.892;9.544;2022-08-25T15:52:36;4.30;;;3.97;;
1467;SDS011;727;48.892;9.544;2022-08-25T15:55:05;5.50;;;3.73;;
1467;SDS011;727;48.892;9.544;2022-08-25T15:57:33;4.20;;;3.73;;
1467;SDS011;727;48.892;9.544;2022-08-25T16:00:00;4.63;;;3.97;;
1467;SDS011;727;48.892;9.544;2022-08-25T16:02:27;4.87;;;4.40;;
1467;SDS011;727;48.892;9.544;2022-08-25T16:04:56;4.23;;;3.93;;
1467;SDS011;727;48.892;9.544;2022-08-25T16:07:23;4.47;;;4.07;;
1467;SDS011;727;48.892;9.544;2022-08-25T16:09:49;4.40;;;4.10;;